sensor_id;sensor_type;location;lat;lon;timestamp;pressure;altitude;pressure_sealevel;temperature;humidity
65376;BME280;51976;47.332;9.404;2023-04-29T00:01:32;92549.06;;;11.82;89.07
65376;BME280;51976;47.332;9.404;2023-04-29T00:03:58;92539.16;;;11.78;89.19
65376;BME280;51976;47.332;9.404;2023-04-29T00:06:23;92546.19;;;11.93;89.11
65376;BME280;51976;47.332;9.404;2023-04-29T00:08:48;92523.56;;;11.89;88.55
65376;BME280;51976;47.332;9.404;2023-04-29T00:11:16;92536.75;;;11.76;88.21
65376;BME280;51976;47.332;9.404;2023-04-29T00:13:41;92548.47;;;11.85;88.18
65376;BME280;51976;47.332;9.404;2023-04-29T00:16:07;92544.75;;;11.81;88.10
65376;BME280;51976;47.332;9.404;2023-04-29T00:18:34;92543.81;;;11.72;88.50
65376;BME280;51976;47.332;9.404;2023-04-29T00:21:00;92534.53;;;11.78;88.23
65376;BME280;51976;47.332;9.404;2023-04-29T00:23:26;92541.34;;;11.76;87.86
65376;BME280;51976;47.332;9.404;2023-04-29T00:25:51;92526.19;;;11.61;88.51
65376;BME280;51976;47.332;9.404;2023-04-29T00:28:17;92538.94;;;11.74;88.50
65376;BME280;51976;47.332;9.404;2023-04-29T00:30:43;92527.72;;;11.67;88.51
65376;BME280;51976;47.332;9.404;2023-04-29T00:33:08;92552.34;;;11.79;88.78
65376;BME280;51976;47.332;9.404;2023-04-29T00:35:33;92516.25;;;11.57;88.74
65376;BME280;51976;47.332;9.404;2023-04-29T00:37:59;92532.06;;;11.82;88.79
65376;BME280;51976;47.332;9.404;2023-04-29T00:40:26;92540.66;;;11.84;88.79
65376;BME280;51976;47.332;9.404;2023-04-29T00:42:52;92534.50;;;11.65;89.39
65376;BME280;51976;47.332;9.404;2023-04-29T00:45:18;92499.63;;;11.49;89.48
65376;BME280;51976;47.332;9.404;2023-04-29T00:47:43;92535.84;;;11.81;89.17
65376;BME280;51976;47.332;9.404;2023-04-29T00:50:09;92536.88;;;11.85;88.82
65376;BME280;51976;47.332;9.404;2023-04-29T00:52:34;92534.09;;;11.90;88.66
65376;BME280;51976;47.332;9.404;2023-04-29T00:55:02;92509.94;;;11.80;88.35
65376;BME280;51976;47.332;9.404;2023-04-29T00:57:29;92519.47;;;11.91;88.21
65376;BME280;51976;47.332;9.404;2023-04-29T00:59:56;92525.59;;;11.97;88.07
65376;BME280;51976;47.332;9.404;2023-04-29T01:02:22;92524.00;;;11.96;87.94
65376;BME280;51976;47.332;9.404;2023-04-29T01:04:47;92522.59;;;11.98;88.03
65376;BME280;51976;47.332;9.404;2023-04-29T01:07:33;92520.09;;;12.02;87.61
65376;BME280;51976;47.332;9.404;2023-04-29T01:10:17;92521.00;;;11.97;87.73
65376;BME280;51976;47.332;9.404;2023-04-29T01:13:02;92519.47;;;11.91;87.72
65376;BME280;51976;47.332;9.404;2023-04-29T01:15:45;92490.56;;;11.59;88.08
65376;BME280;51976;47.332;9.404;2023-04-29T01:18:16;92520.38;;;11.86;88.17
65376;BME280;51976;47.332;9.404;2023-04-29T01:20:43;92535.78;;;11.86;88.46
65376;BME280;51976;47.332;9.404;2023-04-29T01:23:09;92551.47;;;11.84;88.32
65376;BME280;51976;47.332;9.404;2023-04-29T01:25:35;92542.31;;;11.66;89.16
65376;BME280;51976;47.332;9.404;2023-04-29T01:28:39;92532.09;;;11.63;89.22
65376;BME280;51976;47.332;9.404;2023-04-29T01:31:17;92534.19;;;11.66;86.31
65376;BME280;51976;47.332;9.404;2023-04-29T01:33:59;92505.50;;;11.70;83.24
65376;BME280;51976;47.332;9.404;2023-04-29T01:36:50;92525.97;;;11.90;80.37
65376;BME280;51976;47.332;9.404;2023-04-29T01:39:36;92520.28;;;11.92;79.58
65376;BME280;51976;47.332;9.404;2023-04-29T01:42:21;92518.88;;;11.94;79.98
65376;BME280;51976;47.332;9.404;2023-04-29T01:44:50;92505.16;;;11.91;79.44
65376;BME280;51976;47.332;9.404;2023-04-29T01:47:17;92525.09;;;11.95;79.61
65376;BME280;51976;47.332;9.404;2023-04-29T01:49:42;92519.97;;;11.93;80.26
65376;BME280;51976;47.332;9.404;2023-04-29T01:52:11;92521.09;;;11.92;79.76
65376;BME280;51976;47.332;9.404;2023-04-29T01:54:37;92524.16;;;11.85;79.80
65376;BME280;51976;47.332;9.404;2023-04-29T01:57:02;92529.66;;;11.80;81.63
65376;BME280;51976;47.332;9.404;2023-04-29T01:59:28;92494.56;;;11.48;82.57
65376;BME280;51976;47.332;9.404;2023-04-29T02:01:54;92517.06;;;11.57;83.46
65376;BME280;51976;47.332;9.404;2023-04-29T02:04:21;92502.91;;;11.65;82.93
65376;BME280;51976;47.332;9.404;2023-04-29T02:06:46;92514.63;;;11.74;82.33
65376;BME280;51976;47.332;9.404;2023-04-29T02:09:11;92523.09;;;11.68;82.75
65376;BME280;51976;47.332;9.404;2023-04-29T02:11:37;92508.88;;;11.62;82.94
65376;BME280;51976;47.332;9.404;2023-04-29T02:14:02;92528.72;;;11.71;83.11
65376;BME280;51976;47.332;9.404;2023-04-29T02:16:27;92524.91;;;11.72;82.54
65376;BME280;51976;47.332;9.404;2023-04-29T02:18:53;92514.91;;;11.73;82.12
65376;BME280;51976;47.332;9.404;2023-04-29T02:21:18;92529.16;;;11.78;81.89
65376;BME280;51976;47.332;9.404;2023-04-29T02:23:44;92523.56;;;11.89;81.74
65376;BME280;51976;47.332;9.404;2023-04-29T02:26:09;92504.53;;;11.80;81.74
65376;BME280;51976;47.332;9.404;2023-04-29T02:28:35;92516.16;;;11.80;82.37
65376;BME280;51976;47.332;9.404;2023-04-29T02:31:01;92515.88;;;11.63;82.97
65376;BME280;51976;47.332;9.404;2023-04-29T02:33:26;92526.31;;;11.70;83.40
65376;BME280;51976;47.332;9.404;2023-04-29T02:35:52;92520.03;;;11.74;83.52
65376;BME280;51976;47.332;9.404;2023-04-29T02:38:17;92523.47;;;11.61;84.36
65376;BME280;51976;47.332;9.404;2023-04-29T02:40:43;92527.19;;;11.65;84.60
65376;BME280;51976;47.332;9.404;2023-04-29T02:43:09;92530.84;;;11.56;85.31
65376;BME280;51976;47.332;9.404;2023-04-29T02:45:35;92512.53;;;11.39;85.63
65376;BME280;51976;47.332;9.404;2023-04-29T02:48:01;92530.75;;;11.47;85.60
65376;BME280;51976;47.332;9.404;2023-04-29T02:50:26;92485.78;;;11.24;85.42
65376;BME280;51976;47.332;9.404;2023-04-29T02:52:52;92526.56;;;11.54;85.44
65376;BME280;51976;47.332;9.404;2023-04-29T02:55:18;92526.69;;;11.63;85.03
65376;BME280;51976;47.332;9.404;2023-04-29T02:57:43;92531.28;;;11.63;85.20
65376;BME280;51976;47.332;9.404;2023-04-29T03:00:09;92525.75;;;11.54;84.57
65376;BME280;51976;47.332;9.404;2023-04-29T03:02:35;92533.03;;;11.53;84.84
65376;BME280;51976;47.332;9.404;2023-04-29T03:05:01;92525.84;;;11.49;84.55
65376;BME280;51976;47.332;9.404;2023-04-29T03:07:27;92529.59;;;11.67;84.37
65376;BME280;51976;47.332;9.404;2023-04-29T03:09:54;92512.53;;;11.39;84.46
65376;BME280;51976;47.332;9.404;2023-04-29T03:12:20;92515.00;;;11.35;84.74
65376;BME280;51976;47.332;9.404;2023-04-29T03:14:45;92490.91;;;11.06;85.03
65376;BME280;51976;47.332;9.404;2023-04-29T03:17:11;92525.06;;;11.30;85.82
65376;BME280;51976;47.332;9.404;2023-04-29T03:19:36;92487.63;;;11.09;86.43
65376;BME280;51976;47.332;9.404;2023-04-29T03:22:02;92500.88;;;11.25;86.16
65376;BME280;51976;47.332;9.404;2023-04-29T03:24:27;92507.78;;;11.31;86.21
65376;BME280;51976;47.332;9.404;2023-04-29T03:26:53;92521.75;;;11.19;87.21
65376;BME280;51976;47.332;9.404;2023-04-29T03:29:18;92503.88;;;11.04;87.85
65376;BME280;51976;47.332;9.404;2023-04-29T03:31:44;92496.16;;;10.98;88.42
65376;BME280;51976;47.332;9.404;2023-04-29T03:34:10;92458.72;;;10.77;88.47
65376;BME280;51976;47.332;9.404;2023-04-29T03:36:35;92497.41;;;11.05;88.18
65376;BME280;51976;47.332;9.404;2023-04-29T03:39:01;92504.97;;;11.03;88.21
65376;BME280;51976;47.332;9.404;2023-04-29T03:41:26;92501.34;;;11.13;87.58
65376;BME280;51976;47.332;9.404;2023-04-29T03:43:51;92499.44;;;11.13;86.97
65376;BME280;51976;47.332;9.404;2023-04-29T03:46:19;92512.84;;;11.18;87.02
65376;BME280;51976;47.332;9.404;2023-04-29T03:48:44;92491.94;;;11.10;86.92
65376;BME280;51976;47.332;9.404;2023-04-29T03:51:09;92501.16;;;11.23;86.79
65376;BME280;51976;47.332;9.404;2023-04-29T03:53:35;92519.31;;;11.36;86.56
65376;BME280;51976;47.332;9.404;2023-04-29T03:56:01;92510.28;;;11.27;86.87
65376;BME280;51976;47.332;9.404;2023-04-29T03:58:26;92511.66;;;11.25;87.11
65376;BME280;51976;47.332;9.404;2023-04-29T04:00:52;92509.91;;;11.34;86.85
65376;BME280;51976;47.332;9.404;2023-04-29T04:03:17;92451.78;;;10.90;86.51
65376;BME280;51976;47.332;9.404;2023-04-29T04:05:43;92503.41;;;11.35;86.54
65376;BME280;51976;47.332;9.404;2023-04-29T04:08:08;92510.41;;;11.36;86.63
65376;BME280;51976;47.332;9.404;2023-04-29T04:10:35;92510.03;;;11.42;86.43
65376;BME280;51976;47.332;9.404;2023-04-29T04:13:00;92506.75;;;11.45;86.41
65376;BME280;51976;47.332;9.404;2023-04-29T04:15:26;92484.81;;;11.33;86.11
65376;BME280;51976;47.332;9.404;2023-04-29T04:17:51;92498.44;;;11.42;86.04
65376;BME280;51976;47.332;9.404;2023-04-29T04:20:16;92491.72;;;11.39;85.95
65376;BME280;51976;47.332;9.404;2023-04-29T04:22:42;92502.72;;;11.10;86.94
65376;BME280;51976;47.332;9.404;2023-04-29T04:25:08;92507.75;;;10.98;87.63
65376;BME280;51976;47.332;9.404;2023-04-29T04:27:34;92521.97;;;11.04;87.64
65376;BME280;51976;47.332;9.404;2023-04-29T04:29:59;92525.53;;;11.18;87.58
65376;BME280;51976;47.332;9.404;2023-04-29T04:32:25;92524.84;;;11.26;87.11
65376;BME280;51976;47.332;9.404;2023-04-29T04:34:50;92515.16;;;11.25;87.05
65376;BME280;51976;47.332;9.404;2023-04-29T04:37:16;92488.66;;;11.13;86.89
65376;BME280;51976;47.332;9.404;2023-04-29T04:39:42;92510.84;;;11.24;86.66
65376;BME280;51976;47.332;9.404;2023-04-29T04:42:07;92537.19;;;11.32;86.87
65376;BME280;51976;47.332;9.404;2023-04-29T04:44:32;92533.16;;;11.30;87.06
65376;BME280;51976;47.332;9.404;2023-04-29T04:46:58;92517.44;;;11.18;86.83
65376;BME280;51976;47.332;9.404;2023-04-29T04:49:25;92518.41;;;11.08;86.81
65376;BME280;51976;47.332;9.404;2023-04-29T04:51:51;92510.09;;;10.86;87.53
65376;BME280;51976;47.332;9.404;2023-04-29T04:54:17;92525.41;;;11.09;87.62
65376;BME280;51976;47.332;9.404;2023-04-29T04:56:42;92548.22;;;11.17;87.49
65376;BME280;51976;47.332;9.404;2023-04-29T04:59:08;92529.63;;;11.15;87.03
65376;BME280;51976;47.332;9.404;2023-04-29T05:01:33;92558.69;;;11.37;86.82
65376;BME280;51976;47.332;9.404;2023-04-29T05:03:58;92562.13;;;11.43;86.56
65376;BME280;51976;47.332;9.404;2023-04-29T05:06:25;92555.84;;;11.47;86.31
65376;BME280;51976;47.332;9.404;2023-04-29T05:08:50;92524.50;;;11.33;86.36
65376;BME280;51976;47.332;9.404;2023-04-29T05:11:19;92529.16;;;11.27;86.35
65376;BME280;51976;47.332;9.404;2023-04-29T05:13:45;92563.53;;;11.54;86.34
65376;BME280;51976;47.332;9.404;2023-04-29T05:16:11;92543.44;;;11.46;86.34
65376;BME280;51976;47.332;9.404;2023-04-29T05:18:37;92570.97;;;11.62;85.97
65376;BME280;51976;47.332;9.404;2023-04-29T05:21:02;92551.72;;;11.50;85.99
65376;BME280;51976;47.332;9.404;2023-04-29T05:23:27;92564.81;;;11.43;86.11
65376;BME280;51976;47.332;9.404;2023-04-29T05:25:53;92564.31;;;11.41;86.36
65376;BME280;51976;47.332;9.404;2023-04-29T05:28:18;92570.63;;;11.50;85.39
65376;BME280;51976;47.332;9.404;2023-04-29T05:30:44;92562.16;;;11.57;84.92
65376;BME280;51976;47.332;9.404;2023-04-29T05:33:10;92562.59;;;11.64;84.26
65376;BME280;51976;47.332;9.404;2023-04-29T05:35:36;92576.97;;;11.59;84.75
65376;BME280;51976;47.332;9.404;2023-04-29T05:38:02;92573.75;;;11.76;84.38
65376;BME280;51976;47.332;9.404;2023-04-29T05:40:27;92576.72;;;11.93;83.98
65376;BME280;51976;47.332;9.404;2023-04-29T05:42:53;92583.16;;;11.78;83.95
65376;BME280;51976;47.332;9.404;2023-04-29T05:45:19;92583.22;;;11.73;84.51
65376;BME280;51976;47.332;9.404;2023-04-29T05:47:44;92578.59;;;11.93;84.02
65376;BME280;51976;47.332;9.404;2023-04-29T05:50:10;92578.84;;;12.10;83.48
65376;BME280;51976;47.332;9.404;2023-04-29T05:52:36;92574.16;;;12.43;82.57
65376;BME280;51976;47.332;9.404;2023-04-29T05:55:01;92584.06;;;13.02;80.60
65376;BME280;51976;47.332;9.404;2023-04-29T05:57:27;92579.38;;;13.44;78.81
65376;BME280;51976;47.332;9.404;2023-04-29T05:59:52;92543.53;;;13.25;78.22
65376;BME280;51976;47.332;9.404;2023-04-29T06:02:19;92584.75;;;13.58;77.72
65376;BME280;51976;47.332;9.404;2023-04-29T06:04:44;92585.22;;;13.37;78.16
65376;BME280;51976;47.332;9.404;2023-04-29T06:07:11;92578.16;;;13.72;75.74
65376;BME280;51976;47.332;9.404;2023-04-29T06:09:37;92566.22;;;13.73;76.16
65376;BME280;51976;47.332;9.404;2023-04-29T06:12:03;92577.44;;;13.80;75.76
65376;BME280;51976;47.332;9.404;2023-04-29T06:14:29;92555.97;;;13.26;76.39
65376;BME280;51976;47.332;9.404;2023-04-29T06:16:54;92563.19;;;13.16;77.30
65376;BME280;51976;47.332;9.404;2023-04-29T06:19:20;92583.66;;;13.81;75.73
65376;BME280;51976;47.332;9.404;2023-04-29T06:21:45;92598.38;;;13.66;76.49
65376;BME280;51976;47.332;9.404;2023-04-29T06:24:11;92595.59;;;13.80;76.44
65376;BME280;51976;47.332;9.404;2023-04-29T06:26:36;92605.59;;;14.24;75.14
65376;BME280;51976;47.332;9.404;2023-04-29T06:29:01;92611.38;;;14.53;73.96
65376;BME280;51976;47.332;9.404;2023-04-29T06:31:27;92603.81;;;14.73;72.70
65376;BME280;51976;47.332;9.404;2023-04-29T06:33:52;92594.09;;;14.80;72.00
65376;BME280;51976;47.332;9.404;2023-04-29T06:36:19;92600.59;;;14.71;71.71
65376;BME280;51976;47.332;9.404;2023-04-29T06:38:44;92609.84;;;14.39;72.30
65376;BME280;51976;47.332;9.404;2023-04-29T06:41:10;92571.75;;;14.13;72.77
65376;BME280;51976;47.332;9.404;2023-04-29T06:43:35;92596.66;;;14.46;71.96
65376;BME280;51976;47.332;9.404;2023-04-29T06:46:01;92607.53;;;14.46;71.96
65376;BME280;51976;47.332;9.404;2023-04-29T06:48:26;92605.66;;;14.33;72.98
65376;BME280;51976;47.332;9.404;2023-04-29T06:50:54;92586.94;;;14.22;72.79
65376;BME280;51976;47.332;9.404;2023-04-29T06:53:20;92581.16;;;14.15;71.80
65376;BME280;51976;47.332;9.404;2023-04-29T06:55:46;92595.84;;;14.76;70.03
65376;BME280;51976;47.332;9.404;2023-04-29T06:58:12;92595.78;;;15.16;69.21
65376;BME280;51976;47.332;9.404;2023-04-29T07:00:38;92596.31;;;15.44;67.45
65376;BME280;51976;47.332;9.404;2023-04-29T07:03:03;92584.25;;;14.93;69.36
65376;BME280;51976;47.332;9.404;2023-04-29T07:05:29;92599.28;;;14.99;69.27
65376;BME280;51976;47.332;9.404;2023-04-29T07:07:54;92578.72;;;15.24;68.69
65376;BME280;51976;47.332;9.404;2023-04-29T07:10:20;92610.69;;;15.36;68.12
65376;BME280;51976;47.332;9.404;2023-04-29T07:12:45;92604.50;;;15.52;67.37
65376;BME280;51976;47.332;9.404;2023-04-29T07:15:10;92594.91;;;15.55;67.51
65376;BME280;51976;47.332;9.404;2023-04-29T07:17:36;92581.66;;;15.62;66.30
65376;BME280;51976;47.332;9.404;2023-04-29T07:20:01;92597.97;;;15.79;65.95
65376;BME280;51976;47.332;9.404;2023-04-29T07:22:28;92600.84;;;15.74;66.30
65376;BME280;51976;47.332;9.404;2023-04-29T07:24:53;92597.81;;;16.02;64.99
65376;BME280;51976;47.332;9.404;2023-04-29T07:27:19;92598.50;;;16.45;63.87
65376;BME280;51976;47.332;9.404;2023-04-29T07:29:45;92595.25;;;16.05;64.84
65376;BME280;51976;47.332;9.404;2023-04-29T07:32:10;92591.75;;;16.69;63.10
65376;BME280;51976;47.332;9.404;2023-04-29T07:34:36;92594.13;;;16.79;63.23
65376;BME280;51976;47.332;9.404;2023-04-29T07:37:02;92598.09;;;16.17;63.03
65376;BME280;51976;47.332;9.404;2023-04-29T07:39:27;92600.53;;;15.84;64.57
65376;BME280;51976;47.332;9.404;2023-04-29T07:41:54;92602.44;;;16.10;64.61
65376;BME280;51976;47.332;9.404;2023-04-29T07:44:20;92592.84;;;16.76;62.47
65376;BME280;51976;47.332;9.404;2023-04-29T07:46:46;92564.19;;;16.15;62.77
65376;BME280;51976;47.332;9.404;2023-04-29T07:49:11;92597.13;;;16.22;63.53
65376;BME280;51976;47.332;9.404;2023-04-29T07:51:40;92602.13;;;16.03;63.82
65376;BME280;51976;47.332;9.404;2023-04-29T07:54:06;92599.13;;;17.06;61.67
65376;BME280;51976;47.332;9.404;2023-04-29T07:56:31;92602.81;;;17.02;61.90
65376;BME280;51976;47.332;9.404;2023-04-29T07:58:59;92585.03;;;17.34;60.77
65376;BME280;51976;47.332;9.404;2023-04-29T08:01:25;92599.16;;;17.56;60.47
65376;BME280;51976;47.332;9.404;2023-04-29T08:03:51;92594.66;;;17.81;59.46
65376;BME280;51976;47.332;9.404;2023-04-29T08:06:16;92601.66;;;17.41;59.68
65376;BME280;51976;47.332;9.404;2023-04-29T08:08:45;92606.59;;;17.47;59.55
65376;BME280;51976;47.332;9.404;2023-04-29T08:11:19;92603.56;;;17.19;59.56
65376;BME280;51976;47.332;9.404;2023-04-29T08:13:46;92605.72;;;16.41;61.82
65376;BME280;51976;47.332;9.404;2023-04-29T08:16:12;92606.41;;;16.30;62.20
65376;BME280;51976;47.332;9.404;2023-04-29T08:18:38;92597.16;;;15.62;62.95
65376;BME280;51976;47.332;9.404;2023-04-29T08:21:04;92610.44;;;15.72;62.97
65376;BME280;51976;47.332;9.404;2023-04-29T08:23:29;92598.91;;;15.66;62.77
65376;BME280;51976;47.332;9.404;2023-04-29T08:25:55;92609.28;;;15.55;63.44
65376;BME280;51976;47.332;9.404;2023-04-29T08:28:21;92598.13;;;15.74;62.55
65376;BME280;51976;47.332;9.404;2023-04-29T08:30:47;92588.69;;;15.63;63.52
65376;BME280;51976;47.332;9.404;2023-04-29T08:33:13;92600.06;;;15.74;63.50
65376;BME280;51976;47.332;9.404;2023-04-29T08:35:39;92602.13;;;16.03;62.65
65376;BME280;51976;47.332;9.404;2023-04-29T08:38:06;92599.88;;;15.70;62.63
65376;BME280;51976;47.332;9.404;2023-04-29T08:40:35;92604.16;;;15.54;62.29
65376;BME280;51976;47.332;9.404;2023-04-29T08:43:05;92607.19;;;15.44;63.47
65376;BME280;51976;47.332;9.404;2023-04-29T08:45:32;92580.03;;;15.44;62.65
65376;BME280;51976;47.332;9.404;2023-04-29T08:47:59;92596.03;;;15.54;61.84
65376;BME280;51976;47.332;9.404;2023-04-29T08:50:26;92556.34;;;15.36;61.55
65376;BME280;51976;47.332;9.404;2023-04-29T08:52:52;92576.09;;;15.59;61.64
65376;BME280;51976;47.332;9.404;2023-04-29T08:55:19;92579.44;;;15.81;60.75
65376;BME280;51976;47.332;9.404;2023-04-29T08:57:47;92586.59;;;16.03;60.63
65376;BME280;51976;47.332;9.404;2023-04-29T09:00:14;92575.91;;;16.62;59.57
65376;BME280;51976;47.332;9.404;2023-04-29T09:02:44;92584.91;;;17.30;58.18
65376;BME280;51976;47.332;9.404;2023-04-29T09:05:10;92590.91;;;17.44;57.35
65376;BME280;51976;47.332;9.404;2023-04-29T09:07:40;92581.50;;;17.83;56.56
65376;BME280;51976;47.332;9.404;2023-04-29T09:10:06;92566.59;;;16.72;58.59
65376;BME280;51976;47.332;9.404;2023-04-29T09:12:32;92586.41;;;16.34;60.83
65376;BME280;51976;47.332;9.404;2023-04-29T09:14:57;92588.03;;;16.01;61.39
65376;BME280;51976;47.332;9.404;2023-04-29T09:17:41;92597.00;;;15.93;62.14
65376;BME280;51976;47.332;9.404;2023-04-29T09:20:27;92595.09;;;15.84;62.06
65376;BME280;51976;47.332;9.404;2023-04-29T09:22:54;92588.53;;;15.68;62.06
65376;BME280;51976;47.332;9.404;2023-04-29T09:25:21;92599.56;;;15.63;62.00
65376;BME280;51976;47.332;9.404;2023-04-29T09:27:46;92591.72;;;15.70;62.22
65376;BME280;51976;47.332;9.404;2023-04-29T09:30:12;92583.88;;;15.60;63.20
65376;BME280;51976;47.332;9.404;2023-04-29T09:32:40;92585.84;;;15.85;62.27
65376;BME280;51976;47.332;9.404;2023-04-29T09:35:24;92594.59;;;15.91;62.08
65376;BME280;51976;47.332;9.404;2023-04-29T09:37:50;92592.22;;;15.72;62.50
65376;BME280;51976;47.332;9.404;2023-04-29T09:40:30;92570.00;;;15.70;62.08
65376;BME280;51976;47.332;9.404;2023-04-29T09:42:56;92571.13;;;15.69;62.72
65376;BME280;51976;47.332;9.404;2023-04-29T09:45:37;92587.41;;;15.86;60.98
65376;BME280;51976;47.332;9.404;2023-04-29T09:48:04;92581.03;;;15.82;60.78
65376;BME280;51976;47.332;9.404;2023-04-29T09:50:31;92585.59;;;16.34;59.89
65376;BME280;51976;47.332;9.404;2023-04-29T09:52:58;92585.38;;;16.65;56.75
65376;BME280;51976;47.332;9.404;2023-04-29T09:55:24;92543.59;;;16.52;54.13
65376;BME280;51976;47.332;9.404;2023-04-29T09:57:51;92573.66;;;16.73;57.26
65376;BME280;51976;47.332;9.404;2023-04-29T10:00:16;92576.31;;;16.35;57.01
65376;BME280;51976;47.332;9.404;2023-04-29T10:02:45;92588.03;;;16.09;60.29
65376;BME280;51976;47.332;9.404;2023-04-29T10:05:14;92556.25;;;15.84;61.51
65376;BME280;51976;47.332;9.404;2023-04-29T10:07:40;92573.50;;;15.97;62.44
65376;BME280;51976;47.332;9.404;2023-04-29T10:10:08;92589.59;;;16.19;61.83
65376;BME280;51976;47.332;9.404;2023-04-29T10:12:35;92572.22;;;15.94;61.45
65376;BME280;51976;47.332;9.404;2023-04-29T10:15:21;92583.28;;;16.53;60.01
65376;BME280;51976;47.332;9.404;2023-04-29T10:18:10;92579.41;;;16.71;60.17
65376;BME280;51976;47.332;9.404;2023-04-29T10:20:40;92560.19;;;16.76;58.05
65376;BME280;51976;47.332;9.404;2023-04-29T10:23:10;92575.41;;;16.69;58.08
65376;BME280;51976;47.332;9.404;2023-04-29T10:25:39;92555.38;;;16.18;58.91
65376;BME280;51976;47.332;9.404;2023-04-29T10:28:09;92571.09;;;16.12;60.16
65376;BME280;51976;47.332;9.404;2023-04-29T10:30:39;92580.50;;;16.23;59.65
65376;BME280;51976;47.332;9.404;2023-04-29T10:33:11;92568.47;;;16.33;58.48
65376;BME280;51976;47.332;9.404;2023-04-29T10:35:42;92578.34;;;16.46;57.86
65376;BME280;51976;47.332;9.404;2023-04-29T10:38:16;92574.22;;;16.40;58.24
65376;BME280;51976;47.332;9.404;2023-04-29T10:40:46;92563.28;;;16.57;59.14
65376;BME280;51976;47.332;9.404;2023-04-29T10:43:13;92568.72;;;16.57;57.40
65376;BME280;51976;47.332;9.404;2023-04-29T10:45:39;92566.00;;;16.57;56.75
65376;BME280;51976;47.332;9.404;2023-04-29T10:48:08;92562.34;;;16.45;56.43
65376;BME280;51976;47.332;9.404;2023-04-29T10:51:00;92564.16;;;16.32;57.37
65376;BME280;51976;47.332;9.404;2023-04-29T10:53:27;92561.59;;;16.36;57.40
65376;BME280;51976;47.332;9.404;2023-04-29T10:55:56;92549.13;;;16.35;57.75
65376;BME280;51976;47.332;9.404;2023-04-29T10:58:42;92562.94;;;16.12;58.09
65376;BME280;51976;47.332;9.404;2023-04-29T11:01:10;92564.34;;;16.18;58.48
65376;BME280;51976;47.332;9.404;2023-04-29T11:03:54;92555.63;;;16.42;57.81
65376;BME280;51976;47.332;9.404;2023-04-29T11:06:37;92527.69;;;16.71;57.19
65376;BME280;51976;47.332;9.404;2023-04-29T11:09:13;92531.50;;;16.79;55.49
65376;BME280;51976;47.332;9.404;2023-04-29T11:11:42;92542.84;;;16.89;55.12
65376;BME280;51976;47.332;9.404;2023-04-29T11:14:09;92522.00;;;16.64;54.25
65376;BME280;51976;47.332;9.404;2023-04-29T11:16:37;92514.50;;;16.44;55.07
65376;BME280;51976;47.332;9.404;2023-04-29T11:19:14;92545.03;;;16.67;55.29
65376;BME280;51976;47.332;9.404;2023-04-29T11:21:39;92545.31;;;16.74;55.77
65376;BME280;51976;47.332;9.404;2023-04-29T11:24:05;92546.22;;;16.40;57.05
65376;BME280;51976;47.332;9.404;2023-04-29T11:26:34;92547.28;;;16.47;57.00
65376;BME280;51976;47.332;9.404;2023-04-29T11:29:00;92540.22;;;16.55;56.46
65376;BME280;51976;47.332;9.404;2023-04-29T11:31:29;92534.81;;;16.46;57.58
65376;BME280;51976;47.332;9.404;2023-04-29T11:33:55;92534.81;;;16.46;56.73
65376;BME280;51976;47.332;9.404;2023-04-29T11:36:20;92552.16;;;16.80;57.17
65376;BME280;51976;47.332;9.404;2023-04-29T11:38:46;92544.44;;;16.90;56.28
65376;BME280;51976;47.332;9.404;2023-04-29T11:41:11;92546.38;;;16.90;56.01
65376;BME280;51976;47.332;9.404;2023-04-29T11:43:37;92544.34;;;16.70;56.12
65376;BME280;51976;47.332;9.404;2023-04-29T11:46:13;92543.75;;;16.64;54.66
65376;BME280;51976;47.332;9.404;2023-04-29T11:48:46;92537.22;;;16.48;55.22
65376;BME280;51976;47.332;9.404;2023-04-29T11:51:12;92545.53;;;16.51;55.70
65376;BME280;51976;47.332;9.404;2023-04-29T11:53:38;92538.78;;;16.66;55.26
65376;BME280;51976;47.332;9.404;2023-04-29T11:56:04;92545.59;;;16.34;57.15
65376;BME280;51976;47.332;9.404;2023-04-29T11:58:29;92533.44;;;16.32;57.37
65376;BME280;51976;47.332;9.404;2023-04-29T12:00:57;92552.63;;;16.35;57.15
65376;BME280;51976;47.332;9.404;2023-04-29T12:03:23;92546.34;;;16.43;57.16
65376;BME280;51976;47.332;9.404;2023-04-29T12:05:53;92547.91;;;16.62;57.39
65376;BME280;51976;47.332;9.404;2023-04-29T12:08:23;92550.28;;;17.01;57.05
65376;BME280;51976;47.332;9.404;2023-04-29T12:10:49;92550.28;;;17.01;55.95
65376;BME280;51976;47.332;9.404;2023-04-29T12:13:15;92541.91;;;17.36;55.21
65376;BME280;51976;47.332;9.404;2023-04-29T12:15:42;92542.25;;;17.34;53.60
65376;BME280;51976;47.332;9.404;2023-04-29T12:18:08;92546.84;;;17.63;53.60
65376;BME280;51976;47.332;9.404;2023-04-29T12:20:34;92535.72;;;18.10;52.58
65376;BME280;51976;47.332;9.404;2023-04-29T12:23:17;92525.38;;;18.48;51.12
65376;BME280;51976;47.332;9.404;2023-04-29T12:25:50;92530.66;;;18.66;49.39
65376;BME280;51976;47.332;9.404;2023-04-29T12:28:16;92525.53;;;18.76;47.62
65376;BME280;51976;47.332;9.404;2023-04-29T12:30:45;92521.03;;;18.47;49.32
65376;BME280;51976;47.332;9.404;2023-04-29T12:33:24;92506.03;;;18.08;50.71
65376;BME280;51976;47.332;9.404;2023-04-29T12:35:52;92511.13;;;17.98;50.53
65376;BME280;51976;47.332;9.404;2023-04-29T12:38:21;92490.47;;;18.09;50.32
65376;BME280;51976;47.332;9.404;2023-04-29T12:40:47;92501.16;;;18.02;51.30
65376;BME280;51976;47.332;9.404;2023-04-29T12:43:12;92516.28;;;18.11;50.13
65376;BME280;51976;47.332;9.404;2023-04-29T12:45:38;92514.75;;;18.35;49.65
65376;BME280;51976;47.332;9.404;2023-04-29T12:48:04;92511.00;;;18.27;50.40
65376;BME280;51976;47.332;9.404;2023-04-29T12:50:32;92514.06;;;18.38;48.30
65376;BME280;51976;47.332;9.404;2023-04-29T12:52:58;92511.22;;;18.22;47.86
65376;BME280;51976;47.332;9.404;2023-04-29T12:55:23;92505.63;;;18.18;48.72
65376;BME280;51976;47.332;9.404;2023-04-29T12:57:49;92516.41;;;18.60;45.14
65376;BME280;51976;47.332;9.404;2023-04-29T13:00:14;92494.81;;;19.04;44.05
65376;BME280;51976;47.332;9.404;2023-04-29T13:02:40;92496.97;;;19.22;43.17